sensor_id;sensor_type;location;lat;lon;timestamp;pressure;altitude;pressure_sealevel;temperature;humidity
52105;BME280;38103;42.776;23.112;2023-04-03T00:01:13;93279.34;;;6.46;74.97
52105;BME280;38103;42.776;23.112;2023-04-03T00:03:39;93341.16;;;6.73;75.38
52105;BME280;38103;42.776;23.112;2023-04-03T00:06:06;93286.16;;;6.35;75.29
52105;BME280;38103;42.776;23.112;2023-04-03T00:08:34;93336.25;;;6.65;75.83
52105;BME280;38103;42.776;23.112;2023-04-03T00:11:00;93302.84;;;6.41;75.60
52105;BME280;38103;42.776;23.112;2023-04-03T00:13:26;93336.00;;;6.66;75.78
52105;BME280;38103;42.776;23.112;2023-04-03T00:15:52;93340.06;;;6.50;76.71
52105;BME280;38103;42.776;23.112;2023-04-03T00:18:17;93319.84;;;6.39;76.85
52105;BME280;38103;42.776;23.112;2023-04-03T00:20:43;93346.81;;;6.46;77.25
52105;BME280;38103;42.776;23.112;2023-04-03T00:23:08;93337.44;;;6.50;77.13
52105;BME280;38103;42.776;23.112;2023-04-03T00:25:34;93342.25;;;6.53;77.17
52105;BME280;38103;42.776;23.112;2023-04-03T00:28:00;93334.94;;;6.55;76.83
52105;BME280;38103;42.776;23.112;2023-04-03T00:30:25;93332.13;;;6.57;76.85
52105;BME280;38103;42.776;23.112;2023-04-03T00:32:51;93297.66;;;6.34;76.76
52105;BME280;38103;42.776;23.112;2023-04-03T00:35:18;93339.94;;;6.45;77.46
52105;BME280;38103;42.776;23.112;2023-04-03T00:37:44;93298.84;;;6.08;77.93
52105;BME280;38103;42.776;23.112;2023-04-03T00:40:12;93341.75;;;6.13;79.15
52105;BME280;38103;42.776;23.112;2023-04-03T00:42:40;93351.16;;;6.02;80.12
52105;BME280;38103;42.776;23.112;2023-04-03T00:47:31;93344.25;;;5.89;81.35
52105;BME280;38103;42.776;23.112;2023-04-03T00:49:57;93344.09;;;6.03;80.56
52105;BME280;38103;42.776;23.112;2023-04-03T00:52:27;93344.84;;;6.10;79.99
52105;BME280;38103;42.776;23.112;2023-04-03T00:54:57;93342.81;;;6.12;79.71
52105;BME280;38103;42.776;23.112;2023-04-03T00:57:26;93340.03;;;6.07;79.91
52105;BME280;38103;42.776;23.112;2023-04-03T00:59:55;93336.09;;;5.98;80.53
52105;BME280;38103;42.776;23.112;2023-04-03T01:02:23;93346.94;;;6.01;81.07
52105;BME280;38103;42.776;23.112;2023-04-03T01:04:48;93347.91;;;6.07;80.88
52105;BME280;38103;42.776;23.112;2023-04-03T01:07:21;93344.84;;;6.10;81.18
52105;BME280;38103;42.776;23.112;2023-04-03T01:09:50;93349.63;;;6.13;81.17
52105;BME280;38103;42.776;23.112;2023-04-03T01:12:23;93349.19;;;6.17;81.27
52105;BME280;38103;42.776;23.112;2023-04-03T01:14:57;93347.63;;;6.16;81.13
52105;BME280;38103;42.776;23.112;2023-04-03T01:17:38;93347.63;;;6.16;81.14
52105;BME280;38103;42.776;23.112;2023-04-03T01:23:09;93344.25;;;6.08;81.71
52105;BME280;38103;42.776;23.112;2023-04-03T01:25:45;93340.44;;;6.04;82.12
52105;BME280;38103;42.776;23.112;2023-04-03T01:28:21;93342.06;;;6.05;82.07
52105;BME280;38103;42.776;23.112;2023-04-03T01:30:59;93346.25;;;6.06;81.81
52105;BME280;38103;42.776;23.112;2023-04-03T01:33:26;93343.63;;;6.06;81.88
52105;BME280;38103;42.776;23.112;2023-04-03T01:35:51;93348.09;;;6.06;81.95
52105;BME280;38103;42.776;23.112;2023-04-03T01:38:17;93327.19;;;5.99;82.11
52105;BME280;38103;42.776;23.112;2023-04-03T01:40:42;93348.09;;;6.06;82.41
52105;BME280;38103;42.776;23.112;2023-04-03T01:43:08;93345.28;;;6.07;82.20
52105;BME280;38103;42.776;23.112;2023-04-03T01:45:33;93351.91;;;6.10;81.97
52105;BME280;38103;42.776;23.112;2023-04-03T01:47:59;93342.00;;;6.12;81.62
52105;BME280;38103;42.776;23.112;2023-04-03T01:50:24;93350.09;;;6.10;81.86
52105;BME280;38103;42.776;23.112;2023-04-03T01:52:50;93350.94;;;6.04;82.21
52105;BME280;38103;42.776;23.112;2023-04-03T01:55:15;93348.09;;;6.06;81.95
52105;BME280;38103;42.776;23.112;2023-04-03T01:57:41;93342.66;;;6.07;81.80
52105;BME280;38103;42.776;23.112;2023-04-03T02:00:07;93350.94;;;6.04;81.95
52105;BME280;38103;42.776;23.112;2023-04-03T02:02:33;93330.38;;;6.01;81.72
52105;BME280;38103;42.776;23.112;2023-04-03T02:04:58;93335.94;;;6.11;81.37
52105;BME280;38103;42.776;23.112;2023-04-03T02:07:24;93332.88;;;6.14;81.19
52105;BME280;38103;42.776;23.112;2023-04-03T02:09:49;93327.06;;;6.12;81.23
52105;BME280;38103;42.776;23.112;2023-04-03T02:12:15;93339.59;;;6.10;81.48
52105;BME280;38103;42.776;23.112;2023-04-03T02:14:40;93330.69;;;6.11;81.28
52105;BME280;38103;42.776;23.112;2023-04-03T02:17:06;93330.69;;;6.11;81.18
52105;BME280;38103;42.776;23.112;2023-04-03T02:19:34;93271.88;;;5.69;81.63
52105;BME280;38103;42.776;23.112;2023-04-03T02:22:00;93331.94;;;6.09;81.38
52105;BME280;38103;42.776;23.112;2023-04-03T02:24:26;93322.00;;;6.11;81.04
52105;BME280;38103;42.776;23.112;2023-04-03T02:26:51;93324.63;;;6.11;81.01
52105;BME280;38103;42.776;23.112;2023-04-03T02:29:16;93315.75;;;6.12;80.82
52105;BME280;38103;42.776;23.112;2023-04-03T02:31:42;93309.69;;;6.11;80.99
52105;BME280;38103;42.776;23.112;2023-04-03T02:34:07;93309.69;;;6.11;80.92
52105;BME280;38103;42.776;23.112;2023-04-03T02:36:32;93304.44;;;6.11;80.66
52105;BME280;38103;42.776;23.112;2023-04-03T02:38:58;93311.75;;;6.09;80.82
52105;BME280;38103;42.776;23.112;2023-04-03T02:41:23;93306.50;;;6.09;80.68
52105;BME280;38103;42.776;23.112;2023-04-03T02:43:50;93317.06;;;6.02;80.71
52105;BME280;38103;42.776;23.112;2023-04-03T02:46:16;93319.88;;;6.01;80.78
52105;BME280;38103;42.776;23.112;2023-04-03T02:48:41;93310.63;;;5.98;80.78
52105;BME280;38103;42.776;23.112;2023-04-03T02:51:06;93306.63;;;5.96;80.99
52105;BME280;38103;42.776;23.112;2023-04-03T02:53:32;93283.84;;;5.77;81.25
52105;BME280;38103;42.776;23.112;2023-04-03T02:55:57;93300.22;;;5.91;82.36
52105;BME280;38103;42.776;23.112;2023-04-03T02:58:23;93302.28;;;5.89;82.31
52105;BME280;38103;42.776;23.112;2023-04-03T03:00:48;93298.28;;;5.87;83.08
52105;BME280;38103;42.776;23.112;2023-04-03T03:03:13;93300.66;;;5.88;83.26
52105;BME280;38103;42.776;23.112;2023-04-03T03:05:40;93291.78;;;5.89;83.37
52105;BME280;38103;42.776;23.112;2023-04-03T03:08:05;93296.22;;;5.89;83.30
52105;BME280;38103;42.776;23.112;2023-04-03T03:10:30;93302.84;;;5.91;83.08
52105;BME280;38103;42.776;23.112;2023-04-03T03:12:56;93295.00;;;5.91;83.04
52105;BME280;38103;42.776;23.112;2023-04-03T03:15:21;93292.22;;;5.86;82.99
52105;BME280;38103;42.776;23.112;2023-04-03T03:17:47;93297.91;;;5.83;82.95
52105;BME280;38103;42.776;23.112;2023-04-03T03:20:12;93289.47;;;5.81;83.72
52105;BME280;38103;42.776;23.112;2023-04-03T03:22:40;93293.31;;;5.78;83.71
52105;BME280;38103;42.776;23.112;2023-04-03T03:25:06;93288.88;;;5.79;84.19
52105;BME280;38103;42.776;23.112;2023-04-03T03:27:32;93289.91;;;5.78;84.12
52105;BME280;38103;42.776;23.112;2023-04-03T03:29:57;93288.53;;;5.75;84.34
52105;BME280;38103;42.776;23.112;2023-04-03T03:32:23;93279.13;;;5.67;83.98
52105;BME280;38103;42.776;23.112;2023-04-03T03:34:48;93289.63;;;5.67;83.72
52105;BME280;38103;42.776;23.112;2023-04-03T03:37:13;93291.81;;;5.52;83.88
52105;BME280;38103;42.776;23.112;2023-04-03T03:39:39;93297.22;;;5.38;84.84
52105;BME280;38103;42.776;23.112;2023-04-03T03:42:04;93297.34;;;5.24;85.64
52105;BME280;38103;42.776;23.112;2023-04-03T03:44:29;93290.81;;;5.15;86.22
52105;BME280;38103;42.776;23.112;2023-04-03T03:46:55;93295.63;;;4.92;88.27
52105;BME280;38103;42.776;23.112;2023-04-03T03:49:21;93295.22;;;4.70;89.94
52105;BME280;38103;42.776;23.112;2023-04-03T03:51:46;93294.69;;;4.61;91.07
52105;BME280;38103;42.776;23.112;2023-04-03T03:54:12;93296.50;;;4.61;90.45
52105;BME280;38103;42.776;23.112;2023-04-03T03:56:37;93302.84;;;4.46;91.04
52105;BME280;38103;42.776;23.112;2023-04-03T03:59:03;93302.78;;;4.27;94.04
52105;BME280;38103;42.776;23.112;2023-04-03T04:01:28;93311.72;;;4.45;92.35
52105;BME280;38103;42.776;23.112;2023-04-03T04:03:54;93301.84;;;4.47;90.99
52105;BME280;38103;42.776;23.112;2023-04-03T04:06:20;93309.75;;;4.33;90.01
52105;BME280;38103;42.776;23.112;2023-04-03T04:08:46;93301.72;;;4.35;89.27
52105;BME280;38103;42.776;23.112;2023-04-03T04:11:11;93285.28;;;4.21;87.98
52105;BME280;38103;42.776;23.112;2023-04-03T04:13:37;93300.56;;;4.24;87.37
52105;BME280;38103;42.776;23.112;2023-04-03T04:16:02;93309.47;;;4.16;86.76
52105;BME280;38103;42.776;23.112;2023-04-03T04:18:28;93314.22;;;3.94;88.11
52105;BME280;38103;42.776;23.112;2023-04-03T04:20:53;93309.81;;;3.87;88.80
52105;BME280;38103;42.776;23.112;2023-04-03T04:23:18;93316.50;;;3.83;89.40
52105;BME280;38103;42.776;23.112;2023-04-03T04:25:48;93318.13;;;3.77;90.21
52105;BME280;38103;42.776;23.112;2023-04-03T04:28:14;93327.41;;;3.73;90.44
52105;BME280;38103;42.776;23.112;2023-04-03T04:30:40;93328.19;;;3.74;90.74
52105;BME280;38103;42.776;23.112;2023-04-03T04:33:05;93339.25;;;3.76;90.25
52105;BME280;38103;42.776;23.112;2023-04-03T04:35:32;93333.84;;;3.71;90.53
52105;BME280;38103;42.776;23.112;2023-04-03T04:37:57;93327.03;;;3.63;91.38
52105;BME280;38103;42.776;23.112;2023-04-03T04:40:22;93323.47;;;3.43;93.29
52105;BME280;38103;42.776;23.112;2023-04-03T04:42:48;93303.41;;;3.23;93.61
52105;BME280;38103;42.776;23.112;2023-04-03T04:45:13;93338.75;;;3.33;94.12
52105;BME280;38103;42.776;23.112;2023-04-03T04:47:40;93330.00;;;2.59;98.81
52105;BME280;38103;42.776;23.112;2023-04-03T04:50:06;93343.66;;;2.54;100.00
52105;BME280;38103;42.776;23.112;2023-04-03T04:52:31;93341.41;;;2.78;100.00
52105;BME280;38103;42.776;23.112;2023-04-03T04:54:57;93343.63;;;3.02;100.00
52105;BME280;38103;42.776;23.112;2023-04-03T04:57:22;93349.25;;;3.19;100.00
52105;BME280;38103;42.776;23.112;2023-04-03T04:59:47;93355.25;;;3.27;100.00
52105;BME280;38103;42.776;23.112;2023-04-03T05:02:13;93360.47;;;3.33;100.00
52105;BME280;38103;42.776;23.112;2023-04-03T05:04:38;93361.63;;;3.51;100.00
52105;BME280;38103;42.776;23.112;2023-04-03T05:07:03;93366.09;;;3.30;100.00
52105;BME280;38103;42.776;23.112;2023-04-03T05:09:29;93370.94;;;2.99;100.00
52105;BME280;38103;42.776;23.112;2023-04-03T05:11:54;93374.16;;;3.29;100.00
52105;BME280;38103;42.776;23.112;2023-04-03T05:14:21;93374.13;;;3.42;100.00
52105;BME280;38103;42.776;23.112;2023-04-03T05:16:46;93365.66;;;3.40;100.00
52105;BME280;38103;42.776;23.112;2023-04-03T05:19:12;93366.84;;;3.51;100.00
52105;BME280;38103;42.776;23.112;2023-04-03T05:21:38;93380.91;;;3.71;100.00
52105;BME280;38103;42.776;23.112;2023-04-03T05:24:03;93369.19;;;3.80;100.00
52105;BME280;38103;42.776;23.112;2023-04-03T05:26:30;93372.75;;;3.93;100.00
52105;BME280;38103;42.776;23.112;2023-04-03T05:28:55;93375.50;;;4.11;100.00
52105;BME280;38103;42.776;23.112;2023-04-03T05:31:21;93380.06;;;4.30;100.00
52105;BME280;38103;42.776;23.112;2023-04-03T05:33:46;93379.78;;;4.45;100.00
52105;BME280;38103;42.776;23.112;2023-04-03T05:36:12;93369.56;;;4.69;99.43
52105;BME280;38103;42.776;23.112;2023-04-03T05:38:38;93370.59;;;4.94;98.80
52105;BME280;38103;42.776;23.112;2023-04-03T05:41:03;93372.78;;;5.22;96.53
52105;BME280;38103;42.776;23.112;2023-04-03T05:43:29;93370.16;;;5.41;93.72
52105;BME280;38103;42.776;23.112;2023-04-03T05:45:55;93329.53;;;5.32;91.77
52105;BME280;38103;42.776;23.112;2023-04-03T05:48:20;93378.72;;;5.74;89.87
52105;BME280;38103;42.776;23.112;2023-04-03T05:50:46;93377.78;;;5.87;88.63
52105;BME280;38103;42.776;23.112;2023-04-03T05:53:21;93369.16;;;5.99;88.23
52105;BME280;38103;42.776;23.112;2023-04-03T05:55:47;93337.84;;;5.85;87.88
52105;BME280;38103;42.776;23.112;2023-04-03T05:58:13;93367.44;;;6.11;88.30
52105;BME280;38103;42.776;23.112;2023-04-03T06:00:39;93363.13;;;6.17;87.56
52105;BME280;38103;42.776;23.112;2023-04-03T06:03:05;93368.06;;;6.25;87.68
52105;BME280;38103;42.776;23.112;2023-04-03T06:05:31;93364.41;;;6.26;88.32
52105;BME280;38103;42.776;23.112;2023-04-03T06:07:56;93368.63;;;6.46;88.88
52105;BME280;38103;42.776;23.112;2023-04-03T06:10:22;93357.03;;;6.66;87.83
52105;BME280;38103;42.776;23.112;2023-04-03T06:12:48;93346.75;;;6.77;86.77
52105;BME280;38103;42.776;23.112;2023-04-03T06:15:13;93351.91;;;6.84;85.88
52105;BME280;38103;42.776;23.112;2023-04-03T06:17:39;93347.69;;;6.82;84.65
52105;BME280;38103;42.776;23.112;2023-04-03T06:20:05;93338.44;;;6.92;84.16
52105;BME280;38103;42.776;23.112;2023-04-03T06:22:31;93337.63;;;6.91;83.98
52105;BME280;38103;42.776;23.112;2023-04-03T06:24:57;93300.03;;;6.67;83.34
52105;BME280;38103;42.776;23.112;2023-04-03T06:27:22;93342.69;;;6.93;84.57
52105;BME280;38103;42.776;23.112;2023-04-03T06:29:49;93344.41;;;6.99;83.71
52105;BME280;38103;42.776;23.112;2023-04-03T06:32:15;93348.63;;;7.12;83.24
52105;BME280;38103;42.776;23.112;2023-04-03T06:34:41;93351.81;;;7.14;83.59
52105;BME280;38103;42.776;23.112;2023-04-03T06:37:21;93343.50;;;7.30;83.35
52105;BME280;38103;42.776;23.112;2023-04-03T06:39:47;93339.63;;;7.44;82.53
52105;BME280;38103;42.776;23.112;2023-04-03T06:42:13;93307.38;;;7.37;83.40
52105;BME280;38103;42.776;23.112;2023-04-03T06:44:39;93340.72;;;7.73;83.71
52105;BME280;38103;42.776;23.112;2023-04-03T06:47:04;93351.66;;;7.93;81.72
52105;BME280;38103;42.776;23.112;2023-04-03T06:49:30;93346.78;;;8.14;81.74
52105;BME280;38103;42.776;23.112;2023-04-03T06:51:55;93339.78;;;8.20;83.56
52105;BME280;38103;42.776;23.112;2023-04-03T06:54:21;93340.31;;;8.34;81.53
52105;BME280;38103;42.776;23.112;2023-04-03T06:56:47;93333.63;;;8.44;81.74
52105;BME280;38103;42.776;23.112;2023-04-03T06:59:12;93326.81;;;8.60;81.93
52105;BME280;38103;42.776;23.112;2023-04-03T07:01:38;93322.06;;;8.45;83.64
52105;BME280;38103;42.776;23.112;2023-04-03T07:04:04;93324.06;;;8.55;84.22
52105;BME280;38103;42.776;23.112;2023-04-03T07:06:30;93340.69;;;8.55;83.68
52105;BME280;38103;42.776;23.112;2023-04-03T07:08:57;93344.56;;;8.65;82.24
52105;BME280;38103;42.776;23.112;2023-04-03T07:11:23;93347.13;;;8.77;82.22
52105;BME280;38103;42.776;23.112;2023-04-03T07:13:48;93341.88;;;8.94;83.05
52105;BME280;38103;42.776;23.112;2023-04-03T07:16:14;93338.34;;;9.05;81.95
52105;BME280;38103;42.776;23.112;2023-04-03T07:18:40;93335.31;;;9.14;78.46
52105;BME280;38103;42.776;23.112;2023-04-03T07:21:06;93339.22;;;9.11;78.95
52105;BME280;38103;42.776;23.112;2023-04-03T07:23:32;93332.75;;;9.19;78.71
52105;BME280;38103;42.776;23.112;2023-04-03T07:25:57;93324.13;;;9.07;80.30
52105;BME280;38103;42.776;23.112;2023-04-03T07:28:23;93331.16;;;9.18;80.00
52105;BME280;38103;42.776;23.112;2023-04-03T07:31:06;93333.72;;;9.30;80.51
52105;BME280;38103;42.776;23.112;2023-04-03T07:33:34;93327.78;;;9.40;77.48
52105;BME280;38103;42.776;23.112;2023-04-03T07:36:00;93325.75;;;9.47;79.24
52105;BME280;38103;42.776;23.112;2023-04-03T07:38:26;93327.81;;;8.88;78.88
52105;BME280;38103;42.776;23.112;2023-04-03T07:40:51;93327.84;;;8.76;80.32
52105;BME280;38103;42.776;23.112;2023-04-03T07:43:19;93333.38;;;8.92;81.25
52105;BME280;38103;42.776;23.112;2023-04-03T07:45:45;93330.91;;;8.68;82.76
52105;BME280;38103;42.776;23.112;2023-04-03T07:48:12;93318.38;;;8.92;82.08
52105;BME280;38103;42.776;23.112;2023-04-03T07:50:42;93326.50;;;8.74;82.82
52105;BME280;38103;42.776;23.112;2023-04-03T07:53:07;93307.81;;;9.10;82.49
52105;BME280;38103;42.776;23.112;2023-04-03T07:55:33;93305.78;;;9.34;81.85
52105;BME280;38103;42.776;23.112;2023-04-03T07:57:59;93298.59;;;9.69;80.17
52105;BME280;38103;42.776;23.112;2023-04-03T08:00:25;93295.97;;;9.92;78.98
52105;BME280;38103;42.776;23.112;2023-04-03T08:02:50;93293.69;;;10.28;76.64
52105;BME280;38103;42.776;23.112;2023-04-03T08:05:20;93284.69;;;10.52;77.92
52105;BME280;38103;42.776;23.112;2023-04-03T08:07:46;93294.84;;;10.66;73.85
52105;BME280;38103;42.776;23.112;2023-04-03T08:10:12;93281.22;;;10.79;73.27
52105;BME280;38103;42.776;23.112;2023-04-03T08:12:37;93281.72;;;10.76;75.03
52105;BME280;38103;42.776;23.112;2023-04-03T08:15:03;93290.22;;;10.23;72.54
52105;BME280;38103;42.776;23.112;2023-04-03T08:17:29;93290.31;;;9.83;75.25
52105;BME280;38103;42.776;23.112;2023-04-03T08:19:55;93255.06;;;9.94;76.12
52105;BME280;38103;42.776;23.112;2023-04-03T08:22:20;93286.13;;;10.37;77.59
52105;BME280;38103;42.776;23.112;2023-04-03T08:24:46;93283.81;;;10.19;76.19
52105;BME280;38103;42.776;23.112;2023-04-03T08:27:11;93274.03;;;9.91;74.27
52105;BME280;38103;42.776;23.112;2023-04-03T08:29:36;93280.38;;;9.68;77.14
52105;BME280;38103;42.776;23.112;2023-04-03T08:32:03;93278.84;;;9.94;74.59
52105;BME280;38103;42.776;23.112;2023-04-03T08:34:29;93281.53;;;10.00;73.56
52105;BME280;38103;42.776;23.112;2023-04-03T08:36:54;93280.84;;;10.10;72.65
52105;BME280;38103;42.776;23.112;2023-04-03T08:39:20;93263.72;;;9.67;74.44
52105;BME280;38103;42.776;23.112;2023-04-03T08:41:46;93280.41;;;9.95;74.33
52105;BME280;38103;42.776;23.112;2023-04-03T08:47:20;93276.84;;;9.62;75.20
52105;BME280;38103;42.776;23.112;2023-04-03T08:49:51;93279.81;;;9.66;75.97
52105;BME280;38103;42.776;23.112;2023-04-03T08:54:58;93267.16;;;9.90;74.74
52105;BME280;38103;42.776;23.112;2023-04-03T08:57:45;93274.03;;;9.91;74.72
52105;BME280;38103;42.776;23.112;2023-04-03T09:02:48;93271.09;;;9.88;72.55
52105;BME280;38103;42.776;23.112;2023-04-03T09:05:19;93264.44;;;9.85;72.22
52105;BME280;38103;42.776;23.112;2023-04-03T09:07:49;93263.13;;;9.60;72.79
52105;BME280;38103;42.776;23.112;2023-04-03T09:10:24;93258.19;;;9.46;72.69
52105;BME280;38103;42.776;23.112;2023-04-03T09:15:37;93264.00;;;9.48;71.60
52105;BME280;38103;42.776;23.112;2023-04-03T09:18:16;93263.94;;;9.43;73.40
52105;BME280;38103;42.776;23.112;2023-04-03T09:20:56;93251.19;;;9.35;71.48
52105;BME280;38103;42.776;23.112;2023-04-03T09:26:09;93252.91;;;9.91;71.26
52105;BME280;38103;42.776;23.112;2023-04-03T09:28:39;93249.38;;;9.58;69.56
52105;BME280;38103;42.776;23.112;2023-04-03T09:31:25;93239.81;;;9.79;70.91
52105;BME280;38103;42.776;23.112;2023-04-03T09:33:59;93247.47;;;9.76;71.05
52105;BME280;38103;42.776;23.112;2023-04-03T09:36:43;93237.66;;;9.71;69.85
52105;BME280;38103;42.776;23.112;2023-04-03T09:39:13;93238.53;;;9.82;72.57
52105;BME280;38103;42.776;23.112;2023-04-03T09:41:39;93230.09;;;10.08;74.07
52105;BME280;38103;42.776;23.112;2023-04-03T09:44:21;93237.94;;;9.75;70.79
52105;BME280;38103;42.776;23.112;2023-04-03T09:46:46;93235.34;;;9.80;72.78
52105;BME280;38103;42.776;23.112;2023-04-03T09:49:12;93223.31;;;9.89;71.35
52105;BME280;38103;42.776;23.112;2023-04-03T09:51:38;93223.31;;;9.89;71.02
52105;BME280;38103;42.776;23.112;2023-04-03T09:56:53;93172.31;;;9.83;69.47
52105;BME280;38103;42.776;23.112;2023-04-03T09:59:20;93212.88;;;10.00;70.36
52105;BME280;38103;42.776;23.112;2023-04-03T10:04:59;93208.47;;;10.11;71.13
52105;BME280;38103;42.776;23.112;2023-04-03T10:09:57;93196.94;;;9.89;72.37
52105;BME280;38103;42.776;23.112;2023-04-03T10:12:23;93194.56;;;9.93;72.60
52105;BME280;38103;42.776;23.112;2023-04-03T10:15:01;93191.75;;;10.00;73.92
52105;BME280;38103;42.776;23.112;2023-04-03T10:17:49;93197.59;;;10.35;75.02
52105;BME280;38103;42.776;23.112;2023-04-03T10:20:44;93190.25;;;10.09;73.85
52105;BME280;38103;42.776;23.112;2023-04-03T10:28:22;93167.50;;;10.08;72.94
52105;BME280;38103;42.776;23.112;2023-04-03T10:31:06;93186.13;;;10.24;71.96
52105;BME280;38103;42.776;23.112;2023-04-03T10:33:51;93178.41;;;10.50;72.14
52105;BME280;38103;42.776;23.112;2023-04-03T10:36:45;93172.44;;;10.27;72.10
52105;BME280;38103;42.776;23.112;2023-04-03T10:52:24;93151.91;;;10.39;71.93
52105;BME280;38103;42.776;23.112;2023-04-03T10:57:41;93142.22;;;10.50;72.43
52105;BME280;38103;42.776;23.112;2023-04-03T11:00:21;93138.75;;;10.50;71.19
52105;BME280;38103;42.776;23.112;2023-04-03T11:02:59;93146.13;;;10.43;69.87
52105;BME280;38103;42.776;23.112;2023-04-03T11:11:18;93148.16;;;10.30;68.71
52105;BME280;38103;42.776;23.112;2023-04-03T11:13:51;93149.44;;;10.27;70.52
52105;BME280;38103;42.776;23.112;2023-04-03T11:16:31;93150.25;;;10.28;70.37
52105;BME280;38103;42.776;23.112;2023-04-03T11:19:13;93147.19;;;10.47;69.83
52105;BME280;38103;42.776;23.112;2023-04-03T11:21:47;93135.41;;;10.60;70.49
52105;BME280;38103;42.776;23.112;2023-04-03T11:24:24;93139.19;;;10.75;69.44
52105;BME280;38103;42.776;23.112;2023-04-03T11:26:50;93136.72;;;10.57;68.76
52105;BME280;38103;42.776;23.112;2023-04-03T11:29:24;93139.44;;;10.68;70.41
52105;BME280;38103;42.776;23.112;2023-04-03T11:34:37;93118.31;;;10.73;70.33
52105;BME280;38103;42.776;23.112;2023-04-03T11:37:28;93138.34;;;10.58;70.25
52105;BME280;38103;42.776;23.112;2023-04-03T11:40:22;93131.44;;;10.57;70.89
52105;BME280;38103;42.776;23.112;2023-04-03T11:47:57;93127.81;;;10.31;72.59
52105;BME280;38103;42.776;23.112;2023-04-03T11:50:41;93133.28;;;10.24;74.52
52105;BME280;38103;42.776;23.112;2023-04-03T12:05:50;93160.81;;;9.00;87.13
52105;BME280;38103;42.776;23.112;2023-04-03T12:45:40;93120.03;;;8.28;100.00
52105;BME280;38103;42.776;23.112;2023-04-03T12:48:14;93111.09;;;8.12;100.00
52105;BME280;38103;42.776;23.112;2023-04-03T12:50:41;93109.50;;;8.11;100.00
52105;BME280;38103;42.776;23.112;2023-04-03T12:53:24;93107.59;;;8.06;100.00
52105;BME280;38103;42.776;23.112;2023-04-03T12:55:55;93099.00;;;7.93;100.00
52105;BME280;38103;42.776;23.112;2023-04-03T12:58:28;93094.38;;;8.01;100.00
52105;BME280;38103;42.776;23.112;2023-04-03T13:01:00;93097.22;;;7.99;100.00
52105;BME280;38103;42.776;23.112;2023-04-03T13:03:27;93104.56;;;7.97;100.00
52105;BME280;38103;42.776;23.112;2023-04-03T13:05:58;93099.78;;;7.94;100.00
52105;BME280;38103;42.776;23.112;2023-04-03T13:08:24;93098.31;;;7.86;100.00
52105;BME280;38103;42.776;23.112;2023-04-03T13:11:09;93106.22;;;7.86;100.00
52105;BME280;38103;42.776;23.112;2023-04-03T13:13:36;93110.75;;;7.74;100.00
52105;BME280;38103;42.776;23.112;2023-04-03T13:16:08;93103.75;;;7.62;100.00
52105;BME280;38103;42.776;23.112;2023-04-03T13:18:36;93098.47;;;7.62;100.00
52105;BME280;38103;42.776;23.112;2023-04-03T13:21:10;93100.38;;;7.49;100.00
52105;BME280;38103;42.776;23.112;2023-04-03T13:23:40;93100.19;;;7.39;100.00
52105;BME280;38103;42.776;23.112;2023-04-03T13:26:08;93101.59;;;7.30;100.00
52105;BME280;38103;42.776;23.112;2023-04-03T13:28:34;93087.88;;;7.28;100.00
52105;BME280;38103;42.776;23.112;2023-04-03T13:31:22;93086.31;;;7.26;100.00
52105;BME280;38103;42.776;23.112;2023-04-03T13:36:27;93103.75;;;7.03;100.00
52105;BME280;38103;42.776;23.112;2023-04-03T13:39:21;93096.22;;;6.95;100.00
52105;BME280;38103;42.776;23.112;2023-04-03T13:41:48;93086.88;;;6.87;100.00
52105;BME280;38103;42.776;23.112;2023-04-03T13:47:16;93089.91;;;6.67;100.00
52105;BME280;38103;42.776;23.112;2023-04-03T13:49:42;93097.22;;;6.65;100.00
52105;BME280;38103;42.776;23.112;2023-04-03T13:52:25;93091.75;;;6.54;100.00
52105;BME280;38103;42.776;23.112;2023-04-03T13:54:55;93091.53;;;6.44;100.00
52105;BME280;38103;42.776;23.112;2023-04-03T13:57:22;93096.56;;;6.33;100.00
52105;BME280;38103;42.776;23.112;2023-04-03T13:59:48;93096.13;;;6.36;100.00
52105;BME280;38103;42.776;23.112;2023-04-03T14:02:35;93081.72;;;6.27;100.00
52105;BME280;38103;42.776;23.112;2023-04-03T14:05:04;93082.66;;;6.21;100.00
52105;BME280;38103;42.776;23.112;2023-04-03T14:07:33;93081.03;;;6.20;100.00
52105;BME280;38103;42.776;23.112;2023-04-03T14:09:58;93071.47;;;6.25;100.00
52105;BME280;38103;42.776;23.112;2023-04-03T14:12:30;93068.47;;;6.22;100.00
52105;BME280;38103;42.776;23.112;2023-04-03T14:14:56;93072.16;;;6.21;100.00
52105;BME280;38103;42.776;23.112;2023-04-03T14:17:25;93067.22;;;6.24;100.00
52105;BME280;38103;42.776;23.112;2023-04-03T14:19:52;93069.63;;;6.26;100.00
52105;BME280;38103;42.776;23.112;2023-04-03T14:22:31;93064.16;;;6.28;100.00
52105;BME280;38103;42.776;23.112;2023-04-03T14:24:57;93064.72;;;6.30;100.00
52105;BME280;38103;42.776;23.112;2023-04-03T14:29:51;93055.72;;;6.25;100.00
52105;BME280;38103;42.776;23.112;2023-04-03T14:32:20;93053.28;;;6.24;100.00
52105;BME280;38103;42.776;23.112;2023-04-03T14:34:47;93047.69;;;6.32;100.00
52105;BME280;38103;42.776;23.112;2023-04-03T14:37:16;93055.91;;;6.24;100.00
52105;BME280;38103;42.776;23.112;2023-04-03T14:39:42;93057.28;;;6.39;100.00
52105;BME280;38103;42.776;23.112;2023-04-03T14:42:19;93055.13;;;6.35;100.00
52105;BME280;38103;42.776;23.112;2023-04-03T14:44:45;93055.00;;;6.30;100.00
52105;BME280;38103;42.776;23.112;2023-04-03T14:47:15;93050.22;;;6.27;100.00
52105;BME280;38103;42.776;23.112;2023-04-03T14:49:43;93002.50;;;6.06;100.00
52105;BME280;38103;42.776;23.112;2023-04-03T14:52:25;93050.31;;;6.32;100.00
52105;BME280;38103;42.776;23.112;2023-04-03T14:54:51;93053.09;;;6.25;100.00
52105;BME280;38103;42.776;23.112;2023-04-03T14:57:17;93042.13;;;6.29;100.00
52105;BME280;38103;42.776;23.112;2023-04-03T14:59:44;93057.63;;;6.30;100.00
52105;BME280;38103;42.776;23.112;2023-04-03T15:04:50;93053.28;;;6.24;100.00
52105;BME280;38103;42.776;23.112;2023-04-03T15:07:16;93039.59;;;6.22;100.00